createdAt,value
2022-11-29T00:01:39.425Z,8.90
2022-11-29T00:04:06.479Z,8.70
2022-11-29T00:06:34.801Z,8.70
2022-11-29T00:09:07.031Z,8.70
2022-11-29T00:11:57.137Z,8.70
2022-11-29T00:14:26.588Z,8.70
2022-11-29T00:16:59.307Z,8.80
2022-11-29T00:19:26.297Z,8.70
2022-11-29T00:21:53.169Z,8.70
2022-11-29T00:24:20.143Z,8.70
2022-11-29T00:26:47.966Z,8.70
2022-11-29T00:29:15.028Z,9.50
2022-11-29T00:31:42.662Z,8.70
2022-11-29T00:34:11.203Z,8.70
2022-11-29T00:36:38.521Z,8.70
2022-11-29T00:39:06.790Z,8.80
2022-11-29T00:41:35.533Z,8.70
2022-11-29T00:44:02.307Z,8.80
2022-11-29T00:46:29.169Z,8.80
2022-11-29T00:49:00.204Z,8.80
2022-11-29T00:51:27.043Z,8.80
2022-11-29T00:53:53.950Z,8.80
2022-11-29T00:56:20.783Z,8.80
2022-11-29T00:58:49.255Z,8.80
2022-11-29T01:01:16.489Z,8.80
2022-11-29T01:03:43.597Z,8.80
2022-11-29T01:06:14.889Z,8.80
2022-11-29T01:08:42.444Z,8.80
2022-11-29T01:11:22.574Z,8.70
2022-11-29T01:13:57.568Z,8.70
2022-11-29T01:16:26.415Z,8.60
2022-11-29T01:18:53.370Z,8.60
2022-11-29T01:21:23.285Z,8.60
2022-11-29T01:23:52.768Z,8.60
2022-11-29T01:26:27.513Z,8.60
2022-11-29T01:28:56.766Z,8.90
2022-11-29T01:31:35.909Z,8.50
2022-11-29T01:34:05.980Z,8.50
2022-11-29T01:36:34.407Z,8.50
2022-11-29T01:39:04.100Z,8.50
2022-11-29T01:41:34.445Z,8.50
2022-11-29T01:44:26.996Z,8.50
2022-11-29T01:46:55.150Z,8.50
2022-11-29T01:49:39.070Z,8.50
2022-11-29T01:52:23.825Z,8.40
2022-11-29T01:54:58.071Z,8.40
2022-11-29T01:57:26.400Z,8.40
2022-11-29T02:00:02.467Z,8.40
2022-11-29T02:02:58.406Z,8.40
2022-11-29T02:05:26.275Z,8.40
2022-11-29T02:07:58.954Z,8.40
2022-11-29T02:11:14.077Z,8.40
2022-11-29T02:14:23.680Z,8.40
2022-11-29T02:17:29.575Z,8.50
2022-11-29T02:20:39.058Z,8.50
2022-11-29T02:23:50.443Z,8.60
2022-11-29T02:26:43.306Z,8.60
2022-11-29T02:29:38.612Z,8.70
2022-11-29T02:32:45.377Z,8.60
2022-11-29T02:36:12.021Z,8.70
2022-11-29T02:39:25.348Z,8.70
2022-11-29T02:42:52.565Z,8.80
2022-11-29T02:46:14.720Z,8.80
2022-11-29T02:48:53.094Z,8.80
2022-11-29T02:51:41.405Z,8.80
2022-11-29T02:54:27.518Z,8.80
2022-11-29T02:57:02.038Z,8.80
2022-11-29T02:59:57.215Z,8.80
2022-11-29T03:02:41.940Z,8.80
2022-11-29T03:05:41.426Z,8.80
2022-11-29T03:08:37.136Z,8.80
2022-11-29T03:11:27.681Z,8.80
2022-11-29T03:14:22.691Z,8.80
2022-11-29T03:18:01.103Z,8.60
2022-11-29T03:20:58.364Z,8.70
2022-11-29T03:23:45.348Z,8.70
2022-11-29T03:26:29.620Z,8.70
2022-11-29T03:29:07.818Z,8.70
2022-11-29T03:31:39.085Z,8.70
2022-11-29T03:34:30.561Z,9.40
2022-11-29T03:37:30.117Z,8.60
2022-11-29T03:40:07.402Z,8.60
2022-11-29T03:42:59.459Z,8.60
2022-11-29T03:45:48.545Z,8.60
2022-11-29T03:48:24.449Z,8.60
2022-11-29T03:51:00.215Z,8.70
2022-11-29T03:53:45.067Z,8.70
2022-11-29T03:56:34.600Z,8.70
2022-11-29T03:59:46.030Z,8.70
2022-11-29T04:03:09.401Z,8.70
2022-11-29T04:06:06.956Z,8.70
2022-11-29T04:09:13.580Z,8.80
2022-11-29T04:12:14.199Z,8.80
2022-11-29T04:15:20.834Z,8.80
2022-11-29T04:17:53.523Z,8.80
2022-11-29T04:21:06.841Z,8.80
2022-11-29T04:24:15.833Z,8.80
2022-11-29T04:27:37.524Z,8.80
2022-11-29T04:30:07.150Z,8.90
2022-11-29T04:32:59.367Z,8.90
2022-11-29T04:35:55.321Z,8.90
2022-11-29T04:38:49.015Z,8.90
2022-11-29T04:41:40.438Z,8.90
2022-11-29T04:44:53.854Z,8.90
2022-11-29T04:47:47.086Z,8.90
2022-11-29T04:50:46.939Z,8.90
2022-11-29T04:53:30.548Z,11.00
2022-11-29T04:56:19.241Z,8.90
2022-11-29T04:59:16.367Z,8.90
2022-11-29T05:02:26.304Z,8.90
2022-11-29T05:05:14.387Z,8.90
2022-11-29T05:08:26.091Z,8.90
2022-11-29T05:11:25.050Z,8.90
2022-11-29T05:14:34.263Z,8.90
2022-11-29T05:17:33.510Z,8.90
2022-11-29T05:20:12.993Z,8.90
2022-11-29T05:23:18.885Z,8.80
2022-11-29T05:26:19.967Z,8.80
2022-11-29T05:29:09.918Z,8.80
2022-11-29T05:31:51.678Z,8.70
2022-11-29T05:34:35.149Z,8.80
2022-11-29T05:37:27.649Z,8.80
2022-11-29T05:40:39.116Z,8.80
2022-11-29T05:43:22.217Z,8.70
2022-11-29T05:46:27.431Z,8.70
2022-11-29T05:50:12.445Z,8.60
2022-11-29T05:52:55.301Z,8.60
2022-11-29T05:55:54.680Z,8.60
2022-11-29T05:59:02.640Z,8.50
2022-11-29T06:01:57.685Z,8.50
2022-11-29T06:05:29.884Z,8.50
2022-11-29T06:08:06.176Z,8.50
2022-11-29T06:10:40.127Z,8.60
2022-11-29T06:13:21.991Z,8.50
2022-11-29T06:16:06.331Z,8.50
2022-11-29T06:18:54.584Z,8.50
2022-11-29T06:21:52.774Z,8.50
2022-11-29T06:24:50.626Z,8.50
2022-11-29T06:27:50.684Z,8.50
2022-11-29T06:30:26.870Z,8.50
2022-11-29T06:33:04.974Z,10.00
2022-11-29T06:36:07.123Z,8.50
2022-11-29T06:38:34.273Z,8.60
2022-11-29T06:41:02.541Z,8.60
2022-11-29T06:43:30.660Z,8.60
2022-11-29T06:46:22.688Z,8.60
2022-11-29T06:49:09.639Z,8.60
2022-11-29T06:52:11.753Z,8.70
2022-11-29T06:55:24.194Z,8.70
2022-11-29T06:58:14.347Z,8.70
2022-11-29T07:01:04.996Z,8.70
2022-11-29T07:03:53.650Z,8.80
2022-11-29T07:06:28.598Z,8.80
2022-11-29T07:09:19.052Z,8.90
2022-11-29T07:11:47.577Z,8.90
2022-11-29T07:14:15.400Z,8.90
2022-11-29T07:17:01.702Z,8.90
2022-11-29T07:19:52.740Z,8.90
2022-11-29T07:23:09.273Z,9.00
2022-11-29T07:26:04.675Z,9.00
2022-11-29T07:29:00.926Z,9.00
2022-11-29T07:32:03.941Z,9.00
2022-11-29T07:35:19.418Z,9.00
2022-11-29T07:38:17.566Z,9.00
2022-11-29T07:41:20.915Z,9.00
2022-11-29T07:43:53.417Z,9.00
2022-11-29T07:46:21.222Z,11.30
2022-11-29T07:48:48.033Z,11.00
2022-11-29T07:51:15.313Z,9.10
2022-11-29T07:53:44.421Z,9.20
2022-11-29T07:56:16.662Z,9.20
2022-11-29T07:58:43.666Z,11.20
2022-11-29T08:01:10.709Z,9.30
2022-11-29T08:03:37.884Z,9.30
2022-11-29T08:06:05.637Z,9.30
2022-11-29T08:08:32.529Z,9.20
2022-11-29T08:10:59.326Z,9.20
2022-11-29T08:13:26.268Z,9.20
2022-11-29T08:15:53.069Z,9.20
2022-11-29T08:18:20.009Z,9.20
2022-11-29T08:20:46.872Z,9.20
2022-11-29T08:23:14.575Z,9.20
2022-11-29T08:25:41.510Z,9.20
2022-11-29T08:28:09.294Z,9.20
2022-11-29T08:30:36.346Z,11.70
2022-11-29T08:33:03.518Z,9.30
2022-11-29T08:35:30.946Z,9.30
2022-11-29T08:37:57.880Z,9.30
2022-11-29T08:40:24.861Z,9.90
2022-11-29T08:42:51.681Z,9.30
2022-11-29T08:45:18.648Z,9.40
2022-11-29T08:47:45.489Z,9.40
2022-11-29T08:50:16.810Z,9.30
2022-11-29T08:53:05.774Z,9.40
2022-11-29T08:55:40.473Z,9.50
2022-11-29T08:58:13.300Z,9.50
2022-11-29T09:00:43.479Z,9.50
2022-11-29T09:03:28.662Z,9.50
2022-11-29T09:05:55.934Z,9.50
2022-11-29T09:08:22.870Z,9.60
2022-11-29T09:10:50.311Z,9.60
2022-11-29T09:13:18.091Z,9.60
2022-11-29T09:15:45.074Z,9.70
2022-11-29T09:18:12.005Z,9.70
2022-11-29T09:20:43.933Z,10.10
2022-11-29T09:23:12.859Z,9.90
2022-11-29T09:25:39.766Z,9.90
2022-11-29T09:28:07.447Z,10.00
2022-11-29T09:30:36.479Z,10.10
2022-11-29T09:33:04.776Z,10.10
2022-11-29T09:35:32.279Z,10.80
2022-11-29T09:37:59.219Z,10.30
2022-11-29T09:44:31.095Z,10.40
2022-11-29T09:47:08.619Z,10.40
2022-11-29T09:50:08.938Z,10.50
2022-11-29T09:52:52.590Z,10.40
2022-11-29T09:55:38.634Z,10.50
2022-11-29T09:58:15.335Z,10.60
2022-11-29T10:00:54.147Z,10.50
2022-11-29T10:03:44.659Z,10.50
2022-11-29T10:06:32.806Z,10.60
2022-11-29T10:09:16.736Z,10.50
2022-11-29T10:12:15.810Z,10.50
2022-11-29T10:14:55.916Z,10.60
2022-11-29T10:17:31.865Z,12.20
2022-11-29T10:20:25.534Z,10.50
2022-11-29T10:23:03.293Z,10.60
2022-11-29T10:25:42.034Z,10.60
2022-11-29T10:28:17.036Z,10.50
2022-11-29T10:30:44.870Z,10.60
2022-11-29T10:33:21.090Z,10.60
2022-11-29T10:35:54.222Z,10.60
2022-11-29T10:38:30.868Z,10.60
2022-11-29T10:41:09.205Z,11.80
2022-11-29T10:43:40.420Z,10.60
2022-11-29T10:46:32.227Z,10.70
2022-11-29T10:49:02.858Z,10.70
2022-11-29T10:51:31.744Z,10.80
2022-11-29T10:54:31.377Z,11.50
2022-11-29T10:57:00.860Z,10.80
2022-11-29T10:59:32.971Z,10.90
2022-11-29T11:02:01.821Z,10.90
2022-11-29T11:04:45.420Z,10.90
2022-11-29T11:07:38.233Z,10.90
2022-11-29T11:10:30.729Z,10.80
2022-11-29T11:13:24.531Z,10.90
2022-11-29T11:16:20.272Z,10.90
2022-11-29T11:18:48.328Z,10.90
2022-11-29T11:21:20.729Z,12.10
2022-11-29T11:24:02.960Z,11.40
2022-11-29T11:26:44.675Z,10.90
2022-11-29T11:29:24.677Z,11.00
2022-11-29T11:31:57.635Z,11.00
2022-11-29T11:34:36.545Z,11.00
2022-11-29T11:37:15.300Z,11.00
2022-11-29T11:39:43.966Z,11.00
2022-11-29T11:42:36.788Z,11.00
2022-11-29T11:45:27.311Z,11.00
2022-11-29T11:47:59.676Z,11.00
2022-11-29T11:50:53.771Z,11.10
2022-11-29T11:53:36.432Z,11.10
2022-11-29T11:56:10.486Z,11.10
2022-11-29T11:58:51.476Z,11.10
2022-11-29T12:01:30.469Z,11.10
2022-11-29T12:04:12.993Z,11.00
2022-11-29T12:06:58.443Z,11.00
2022-11-29T12:09:46.103Z,11.00
2022-11-29T12:12:29.766Z,10.90
2022-11-29T12:15:07.015Z,10.90
2022-11-29T12:18:06.340Z,10.80
2022-11-29T12:20:42.328Z,10.80
2022-11-29T12:23:28.781Z,10.80
2022-11-29T12:26:19.272Z,10.80
2022-11-29T12:29:00.087Z,10.80
2022-11-29T12:31:56.977Z,10.80
2022-11-29T12:35:19.040Z,10.70
2022-11-29T12:38:07.706Z,10.70
2022-11-29T12:41:22.903Z,10.80
2022-11-29T12:44:16.520Z,10.80
2022-11-29T12:47:34.208Z,10.80
2022-11-29T12:50:12.987Z,10.80
2022-11-29T12:52:56.206Z,10.80
2022-11-29T12:55:58.938Z,10.80
2022-11-29T12:58:33.093Z,10.80
2022-11-29T13:01:21.721Z,12.10
2022-11-29T13:04:04.415Z,10.80
2022-11-29T13:07:01.356Z,10.80
2022-11-29T13:09:53.844Z,10.80
2022-11-29T13:12:42.634Z,10.90
2022-11-29T13:15:19.971Z,10.90
2022-11-29T13:18:14.232Z,11.20
2022-11-29T13:21:01.394Z,11.10
2022-11-29T13:24:14.730Z,11.10
2022-11-29T13:26:43.760Z,11.10
2022-11-29T13:29:18.453Z,11.20
2022-11-29T13:31:47.328Z,11.20
2022-11-29T13:34:45.446Z,11.20
2022-11-29T13:37:30.190Z,11.20
2022-11-29T13:40:44.786Z,11.30
2022-11-29T13:43:25.511Z,11.30
2022-11-29T13:46:15.661Z,11.30
2022-11-29T13:48:53.472Z,11.20
2022-11-29T13:51:38.532Z,11.20
2022-11-29T13:54:30.812Z,11.20
2022-11-29T13:57:09.699Z,11.20
2022-11-29T13:59:45.727Z,11.20
2022-11-29T14:02:31.238Z,11.10
2022-11-29T14:04:58.585Z,11.10
2022-11-29T14:07:25.589Z,11.10
2022-11-29T14:10:03.254Z,11.10
2022-11-29T14:12:56.134Z,11.10
2022-11-29T14:15:31.985Z,11.10
2022-11-29T14:18:03.985Z,11.10
2022-11-29T14:20:32.378Z,11.10
2022-11-29T14:23:05.023Z,11.10
2022-11-29T14:28:39.234Z,11.10
2022-11-29T14:31:09.160Z,12.40
2022-11-29T14:34:16.319Z,11.20
2022-11-29T14:37:18.329Z,11.10
2022-11-29T14:39:49.612Z,11.10
2022-11-29T14:42:21.437Z,12.80
2022-11-29T14:45:29.480Z,11.10
2022-11-29T14:47:57.374Z,12.30
2022-11-29T14:50:39.679Z,11.10
2022-11-29T14:53:33.037Z,11.10
2022-11-29T14:56:30.912Z,12.30
2022-11-29T14:59:51.757Z,11.00
2022-11-29T15:02:52.125Z,11.10
2022-11-29T15:05:33.036Z,11.10
2022-11-29T15:08:44.127Z,11.10
2022-11-29T15:11:41.217Z,11.10
2022-11-29T15:14:42.720Z,11.10
2022-11-29T15:17:56.179Z,11.10
2022-11-29T15:21:01.360Z,11.10
2022-11-29T15:23:28.320Z,11.10
2022-11-29T15:26:00.853Z,11.90
2022-11-29T15:28:31.142Z,11.30
2022-11-29T15:31:09.628Z,11.10
2022-11-29T15:33:44.121Z,11.10
2022-11-29T15:36:20.461Z,11.10
2022-11-29T15:38:57.372Z,11.70
2022-11-29T15:41:35.480Z,11.10
2022-11-29T15:44:06.637Z,11.20
2022-11-29T15:46:35.659Z,11.10
2022-11-29T15:49:28.052Z,12.50
2022-11-29T15:52:08.284Z,11.10
2022-11-29T15:54:43.277Z,13.00
2022-11-29T15:57:26.332Z,11.10
2022-11-29T16:00:02.047Z,11.10
2022-11-29T16:02:41.100Z,11.10
2022-11-29T16:05:24.411Z,11.10
2022-11-29T16:07:57.424Z,11.10
2022-11-29T16:10:51.414Z,11.00
2022-11-29T16:13:38.713Z,11.00
2022-11-29T16:16:16.623Z,11.00
2022-11-29T16:18:46.613Z,11.00
2022-11-29T16:21:29.737Z,10.90
2022-11-29T16:23:58.356Z,10.90
2022-11-29T16:26:40.389Z,11.90
2022-11-29T16:29:26.196Z,12.40
2022-11-29T16:31:54.339Z,12.50
2022-11-29T16:34:31.179Z,10.80
2022-11-29T16:37:19.210Z,10.80
2022-11-29T16:39:50.926Z,10.90
2022-11-29T16:42:30.199Z,10.80
2022-11-29T16:45:37.061Z,10.70
2022-11-29T16:48:25.433Z,10.70
2022-11-29T16:51:24.887Z,10.70
2022-11-29T16:53:54.201Z,10.70
2022-11-29T16:56:28.165Z,10.70
2022-11-29T16:59:17.129Z,10.70
2022-11-29T17:01:49.639Z,10.60
2022-11-29T17:04:23.641Z,12.30
2022-11-29T17:06:53.304Z,10.60
2022-11-29T17:09:28.727Z,10.60
2022-11-29T17:11:59.584Z,10.60
2022-11-29T17:14:27.007Z,12.60
2022-11-29T17:16:53.949Z,10.60
2022-11-29T17:19:23.535Z,10.60
2022-11-29T17:21:52.896Z,10.60
2022-11-29T17:24:23.118Z,10.60
2022-11-29T17:26:50.797Z,10.60
2022-11-29T17:29:18.679Z,10.60
2022-11-29T17:31:47.221Z,10.60
2022-11-29T17:34:14.178Z,12.10
2022-11-29T17:36:41.044Z,10.60
2022-11-29T17:39:08.400Z,10.60
2022-11-29T17:41:35.376Z,10.60
2022-11-29T17:44:02.516Z,10.70
2022-11-29T17:46:36.458Z,10.60
2022-11-29T17:49:07.808Z,10.70
2022-11-29T17:51:55.447Z,12.10
2022-11-29T17:54:23.108Z,10.60
2022-11-29T17:56:50.792Z,10.60
2022-11-29T17:59:17.967Z,10.60
2022-11-29T18:01:47.059Z,11.20
2022-11-29T18:04:14.397Z,10.50
2022-11-29T18:06:41.496Z,10.50
2022-11-29T18:09:11.108Z,10.50
2022-11-29T18:11:48.476Z,10.40
2022-11-29T18:14:23.930Z,10.30
2022-11-29T18:16:51.934Z,10.20
2022-11-29T18:19:22.082Z,10.10
2022-11-29T18:21:50.939Z,10.10
2022-11-29T18:24:18.767Z,11.40
2022-11-29T18:26:46.016Z,9.90
2022-11-29T18:29:13.106Z,9.80
2022-11-29T18:31:43.606Z,9.70
2022-11-29T18:34:14.079Z,11.30
2022-11-29T18:36:45.705Z,9.60
2022-11-29T18:39:17.094Z,10.60
2022-11-29T18:41:47.431Z,9.40
2022-11-29T18:44:17.867Z,9.40
2022-11-29T18:46:46.124Z,9.30
2022-11-29T18:49:16.481Z,9.30
2022-11-29T18:51:45.503Z,9.20
2022-11-29T18:54:14.228Z,9.20
2022-11-29T18:56:42.456Z,9.10
2022-11-29T18:59:16.782Z,9.10
2022-11-29T19:01:47.666Z,9.00
2022-11-29T19:04:18.403Z,8.90
2022-11-29T19:06:45.571Z,8.90
2022-11-29T19:09:17.032Z,8.90
2022-11-29T19:11:44.015Z,8.90
2022-11-29T19:14:12.888Z,10.80
2022-11-29T19:16:45.293Z,8.90
2022-11-29T19:19:12.581Z,9.70
2022-11-29T19:21:40.282Z,8.90
2022-11-29T19:24:14.656Z,8.90
2022-11-29T19:26:46.190Z,8.90
2022-11-29T19:29:14.744Z,9.00
2022-11-29T19:31:42.654Z,9.10
2022-11-29T19:34:10.287Z,9.10
2022-11-29T19:36:43.146Z,10.50
2022-11-29T19:39:13.894Z,9.20
2022-11-29T19:41:44.246Z,9.30
2022-11-29T19:44:11.708Z,9.30
2022-11-29T19:46:48.806Z,10.90
2022-11-29T19:49:16.692Z,9.50
2022-11-29T19:51:43.935Z,9.50
2022-11-29T19:54:12.357Z,9.50
2022-11-29T19:56:39.692Z,9.60
2022-11-29T19:59:08.713Z,9.60
2022-11-29T20:01:41.800Z,9.70
2022-11-29T20:04:12.340Z,9.70
2022-11-29T20:06:39.787Z,9.70
2022-11-29T20:09:07.217Z,9.80
2022-11-29T20:11:34.140Z,9.80
2022-11-29T20:14:05.255Z,9.80
2022-11-29T20:16:34.230Z,9.90
2022-11-29T20:19:01.711Z,10.30
2022-11-29T20:21:32.701Z,10.00
2022-11-29T20:24:06.975Z,9.90
2022-11-29T20:26:37.949Z,10.00
2022-11-29T20:29:07.158Z,10.00
2022-11-29T20:31:36.032Z,10.00
2022-11-29T20:34:06.496Z,10.00
2022-11-29T20:37:40.197Z,10.00
2022-11-29T20:40:40.229Z,10.00
2022-11-29T20:43:16.913Z,10.00
2022-11-29T20:45:44.247Z,10.00
2022-11-29T20:48:21.884Z,10.00
2022-11-29T20:50:59.663Z,10.00
2022-11-29T20:53:40.078Z,10.00
2022-11-29T20:56:12.537Z,12.00
2022-11-29T20:58:39.850Z,10.00
2022-11-29T21:01:07.391Z,10.00
2022-11-29T21:03:34.755Z,12.10
2022-11-29T21:06:05.670Z,10.00
2022-11-29T21:08:33.833Z,9.90
2022-11-29T21:11:08.126Z,9.90
2022-11-29T21:13:35.673Z,9.90
2022-11-29T21:16:03.518Z,9.90
2022-11-29T21:18:32.414Z,9.90
2022-11-29T21:21:18.708Z,9.90
2022-11-29T21:24:24.368Z,9.90
2022-11-29T21:26:52.418Z,9.80
2022-11-29T21:29:22.553Z,9.80
2022-11-29T21:31:53.455Z,9.80
2022-11-29T21:34:21.876Z,9.80
2022-11-29T21:36:59.832Z,9.80
2022-11-29T21:39:33.987Z,9.80
2022-11-29T21:42:00.984Z,9.80
2022-11-29T21:44:27.892Z,11.80
2022-11-29T21:46:54.798Z,9.80
2022-11-29T21:49:21.775Z,9.80
2022-11-29T21:51:48.934Z,9.80
2022-11-29T21:54:15.745Z,11.10
2022-11-29T21:56:42.589Z,10.10
2022-11-29T21:59:09.337Z,10.50
2022-11-29T22:01:36.210Z,9.90
2022-11-29T22:04:04.124Z,9.90
2022-11-29T22:06:31.069Z,9.90
2022-11-29T22:08:58.041Z,9.90
2022-11-29T22:11:31.355Z,9.90
2022-11-29T22:14:19.753Z,10.00
2022-11-29T22:17:00.512Z,9.90
2022-11-29T22:19:31.365Z,10.00
2022-11-29T22:22:01.868Z,11.30
2022-11-29T22:24:32.193Z,10.00
2022-11-29T22:26:59.298Z,10.10
2022-11-29T22:29:26.406Z,10.00
2022-11-29T22:31:56.363Z,10.10
2022-11-29T22:34:27.081Z,10.00
2022-11-29T22:36:54.792Z,10.10
2022-11-29T22:39:23.879Z,10.10
2022-11-29T22:41:54.556Z,10.10
2022-11-29T22:44:22.930Z,12.10
2022-11-29T22:46:50.330Z,10.10
2022-11-29T22:49:17.287Z,10.10
2022-11-29T22:51:44.262Z,10.10
2022-11-29T22:54:11.771Z,10.10
2022-11-29T22:56:41.606Z,10.10
2022-11-29T22:59:09.428Z,11.30
2022-11-29T23:01:39.483Z,10.00
2022-11-29T23:04:11.422Z,10.10
2022-11-29T23:06:46.369Z,10.00
2022-11-29T23:09:21.957Z,10.40
2022-11-29T23:11:56.033Z,10.00
2022-11-29T23:14:24.402Z,10.10
2022-11-29T23:16:52.583Z,10.00
2022-11-29T23:19:20.273Z,10.00
2022-11-29T23:21:47.915Z,12.10
2022-11-29T23:24:16.019Z,10.00
2022-11-29T23:26:46.867Z,10.00
2022-11-29T23:29:18.565Z,10.00
2022-11-29T23:31:46.832Z,10.00
2022-11-29T23:34:14.466Z,10.10
2022-11-29T23:36:43.336Z,10.10
2022-11-29T23:39:11.559Z,10.00
2022-11-29T23:41:38.344Z,10.10
2022-11-29T23:44:05.959Z,10.10
2022-11-29T23:46:35.026Z,10.10
2022-11-29T23:49:02.304Z,10.10
2022-11-29T23:51:29.285Z,10.10
2022-11-29T23:53:56.157Z,12.00
2022-11-29T23:56:23.457Z,10.10
2022-11-29T23:58:50.432Z,10.10
